Time;durP1;ratioP1;P1;durP2;ratioP2;P2;SDS_P1;SDS_P2;PMS_P1;PMS_P2;Temp;Humidity;BMP_temperature;BMP_pressure;BME280_temperature;BME280_humidity;BME280_pressure;Samples;Min_cycle;Max_cycle;Signal;HPM_P1;HPM_P2
2022/03/24 00:00:11;;;;;;;12.90;9.70;;;;;;;1.92;100.00;98071.47;5027340;28;20219;-53
2022/03/24 00:02:39;;;;;;;14.03;9.40;;;;;;;1.93;100.00;98069.72;5016198;28;20224;-59
2022/03/24 00:05:09;;;;;;;10.23;8.57;;;;;;;2.02;100.00;98067.25;5005821;28;20208;-54
2022/03/24 00:07:37;;;;;;;9.77;7.73;;;;;;;2.09;100.00;98067.69;5024077;28;20249;-50
2022/03/24 00:10:07;;;;;;;9.10;8.20;;;;;;;1.93;100.00;98069.72;5026360;28;20226;-55
2022/03/24 00:12:35;;;;;;;8.87;7.83;;;;;;;2.09;100.00;98069.47;4987021;28;20204;-54
2022/03/24 00:15:04;;;;;;;8.30;7.50;;;;;;;1.91;100.00;98071.59;5023088;28;20203;-54
2022/03/24 00:17:32;;;;;;;7.60;6.90;;;;;;;1.83;100.00;98070.34;5004651;28;20261;-54
2022/03/24 00:20:00;;;;;;;7.77;7.00;;;;;;;1.86;100.00;98072.72;5014552;28;20231;-52
2022/03/24 00:22:28;;;;;;;7.40;6.80;;;;;;;1.90;100.00;98069.94;5023884;28;20433;-55
2022/03/24 00:24:56;;;;;;;8.07;6.87;;;;;;;1.81;100.00;98063.56;5026615;28;20199;-55
2022/03/24 00:27:27;;;;;;;8.10;7.30;;;;;;;1.92;100.00;98076.69;4992906;28;20214;-54
2022/03/24 00:29:55;;;;;;;11.73;8.23;;;;;;;1.89;100.00;98066.47;5026134;28;20227;-49
2022/03/24 00:32:23;;;;;;;9.50;7.40;;;;;;;1.68;100.00;98069.63;5010992;28;20208;-53
2022/03/24 00:34:51;;;;;;;8.53;7.63;;;;;;;1.74;100.00;98063.13;5015467;28;20218;-52
2022/03/24 00:37:19;;;;;;;8.63;7.80;;;;;;;1.64;100.00;98068.16;5026288;28;20204;-53
2022/03/24 00:39:48;;;;;;;8.23;7.53;;;;;;;1.67;100.00;98062.72;5022090;28;20487;-53
2022/03/24 00:42:16;;;;;;;8.53;7.63;;;;;;;1.61;100.00;98062.31;5012724;28;20896;-55
2022/03/24 00:44:46;;;;;;;10.07;8.60;;;;;;;1.52;100.00;98062.03;5008577;28;20399;-50
2022/03/24 00:47:14;;;;;;;9.67;8.20;;;;;;;1.27;100.00;98058.47;5022591;28;20209;-53
2022/03/24 00:49:43;;;;;;;9.23;8.33;;;;;;;1.21;100.00;98068.47;5002770;28;20235;-52
2022/03/24 00:52:11;;;;;;;8.13;7.33;;;;;;;0.98;100.00;98068.25;5027898;28;20196;-54
2022/03/24 00:54:39;;;;;;;8.57;7.73;;;;;;;0.98;100.00;98063.84;5021416;28;20407;-54
2022/03/24 00:57:08;;;;;;;11.57;7.97;;;;;;;0.87;100.00;98066.34;5026052;28;20200;-55
2022/03/24 00:59:36;;;;;;;8.63;7.80;;;;;;;0.99;100.00;98056.88;4988497;28;20425;-54
2022/03/24 01:02:09;;;;;;;7.53;6.83;;;;;;;0.99;100.00;98059.47;5025487;28;20310;-52
2022/03/24 01:04:40;;;;;;;8.60;7.77;;;;;;;0.74;100.00;98060.22;4997434;28;20235;-54
2022/03/24 01:07:08;;;;;;;9.17;8.07;;;;;;;0.78;100.00;98053.91;5022609;28;20235;-53
2022/03/24 01:09:36;;;;;;;8.73;7.80;;;;;;;0.68;100.00;98053.66;5021795;28;20227;-54
2022/03/24 01:12:05;;;;;;;7.80;7.10;;;;;;;0.81;100.00;98054.53;5030584;28;20583;-51
2022/03/24 01:14:35;;;;;;;8.97;7.80;;;;;;;0.68;100.00;98045.84;4982166;28;20250;-53
2022/03/24 01:17:07;;;;;;;13.73;7.80;;;;;;;0.79;100.00;98051.19;5015659;28;20440;-50
2022/03/24 01:19:36;;;;;;;10.10;7.20;;;;;;;0.65;100.00;98044.25;5006977;28;20228;-52
2022/03/24 01:22:04;;;;;;;9.47;7.67;;;;;;;0.87;100.00;98042.84;5013418;28;20580;-53
2022/03/24 01:24:32;;;;;;;8.83;7.93;;;;;;;0.90;100.00;98044.41;5024311;28;20203;-52
2022/03/24 01:27:00;;;;;;;8.97;8.07;;;;;;;0.91;100.00;98044.31;5022980;28;20504;-55
2022/03/24 01:29:28;;;;;;;11.07;7.97;;;;;;;0.90;100.00;98045.25;5027328;28;20750;-54
2022/03/24 01:31:56;;;;;;;8.57;7.67;;;;;;;0.77;100.00;98044.41;4990622;28;20254;-54
2022/03/24 01:34:26;;;;;;;9.57;7.60;;;;;;;0.83;100.00;98041.38;5016519;28;20265;-53
2022/03/24 01:36:54;;;;;;;7.57;6.93;;;;;;;0.82;100.00;98037.94;5004203;28;20208;-53
2022/03/24 01:39:22;;;;;;;8.60;7.57;;;;;;;0.91;100.00;98046.94;5022874;28;20440;-52
2022/03/24 01:41:50;;;;;;;8.57;7.77;;;;;;;0.87;100.00;98032.41;4997728;28;20943;-53
2022/03/24 01:44:21;;;;;;;9.23;8.23;;;;;;;0.87;100.00;98037.63;5029396;28;20254;-52
2022/03/24 01:46:56;;;;;;;8.10;7.30;;;;;;;0.77;100.00;98032.19;4979740;28;20638;-52
2022/03/24 01:49:26;;;;;;;9.53;8.43;;;;;;;0.80;100.00;98026.75;5024817;28;20718;-52
2022/03/24 01:51:55;;;;;;;9.20;8.30;;;;;;;0.75;100.00;98025.38;5003373;28;20258;-53
2022/03/24 01:54:25;;;;;;;9.60;8.27;;;;;;;0.70;100.00;98036.94;5025390;28;20606;-52
2022/03/24 01:56:54;;;;;;;9.00;8.10;;;;;;;0.63;100.00;98027.88;5027348;28;20208;-49
2022/03/24 01:59:22;;;;;;;8.43;7.63;;;;;;;0.69;100.00;98026.63;5028301;28;20227;-52
2022/03/24 02:01:50;;;;;;;8.90;8.07;;;;;;;0.59;100.00;98026.41;4980158;28;22992;-56
2022/03/24 02:04:20;;;;;;;10.27;8.23;;;;;;;0.60;100.00;98027.25;5023609;28;20683;-50
2022/03/24 02:06:51;;;;;;;9.20;8.40;;;;;;;0.61;100.00;98031.53;5001647;28;20974;-51
2022/03/24 02:09:19;;;;;;;9.70;8.73;;;;;;;0.63;100.00;98029.66;5029331;28;20227;-51
2022/03/24 02:11:48;;;;;;;8.27;7.47;;;;;;;0.62;100.00;98028.81;5025275;28;20219;-56
2022/03/24 02:14:16;;;;;;;9.93;8.90;;;;;;;0.54;100.00;98024.06;5026350;28;20651;-52
2022/03/24 02:16:48;;;;;;;10.37;8.23;;;;;;;0.59;100.00;98025.56;4985076;28;20258;-54
2022/03/24 02:19:18;;;;;;;7.97;7.37;;;;;;;0.59;100.00;98022.97;5021957;28;20314;-54
2022/03/24 02:21:46;;;;;;;8.90;8.10;;;;;;;0.66;100.00;98021.63;5004895;28;20208;-54
2022/03/24 02:24:17;;;;;;;8.80;8.00;;;;;;;0.59;100.00;98017.75;5022183;28;20326;-51
2022/03/24 02:26:47;;;;;;;9.87;8.53;;;;;;;0.52;100.00;98018.13;5022497;28;20211;-54
2022/03/24 02:29:17;;;;;;;9.50;8.43;;;;;;;0.57;100.00;98023.06;5026407;28;20223;-51
2022/03/24 02:31:47;;;;;;;8.63;7.83;;;;;;;0.59;100.00;98015.16;5017962;28;20368;-52
2022/03/24 02:34:40;;;;;;;10.93;8.97;;;;;;;0.42;100.00;98017.06;4983630;28;20235;-52
2022/03/24 02:37:10;;;;;;;12.57;9.03;;;;;;;0.48;100.00;98021.06;5007579;28;20208;-51
2022/03/24 02:39:41;;;;;;;9.50;8.50;;;;;;;0.36;100.00;98015.66;5023994;28;20231;-54
2022/03/24 02:42:14;;;;;;;9.37;8.47;;;;;;;0.35;100.00;98018.41;5024153;28;20738;-54
2022/03/24 02:44:44;;;;;;;9.40;8.53;;;;;;;0.30;100.00;98013.47;5025401;28;20203;-55
2022/03/24 02:47:13;;;;;;;10.87;9.77;;;;;;;0.32;100.00;98016.81;5025872;28;20207;-51
2022/03/24 02:49:42;;;;;;;8.53;7.77;;;;;;;0.31;100.00;98011.72;4982450;28;20238;-53
2022/03/24 02:52:11;;;;;;;9.33;8.40;;;;;;;0.25;100.00;98015.53;5004475;28;20862;-53
2022/03/24 02:54:41;;;;;;;9.10;8.30;;;;;;;0.19;100.00;98008.13;5019900;28;20252;-55
2022/03/24 02:57:10;;;;;;;11.27;8.47;;;;;;;0.23;100.00;98007.84;5022963;28;20203;-49
2022/03/24 02:59:39;;;;;;;9.23;8.43;;;;;;;0.18;100.00;98007.25;5027943;28;20232;-53
2022/03/24 03:02:09;;;;;;;10.57;8.90;;;;;;;0.17;100.00;98008.19;5029273;28;20670;-51
2022/03/24 03:04:39;;;;;;;13.10;8.97;;;;;;;0.24;100.00;98006.91;5003333;28;20419;-53
2022/03/24 03:07:07;;;;;;;9.67;8.77;;;;;;;0.10;100.00;98017.34;5009605;28;20214;-52
2022/03/24 03:09:36;;;;;;;10.13;8.63;;;;;;;0.13;100.00;98010.19;4999346;28;20548;-51
2022/03/24 03:12:09;;;;;;;9.73;8.77;;;;;;;0.18;100.00;98017.69;4998856;28;20755;-54
2022/03/24 03:14:38;;;;;;;9.13;8.23;;;;;;;0.16;100.00;98019.56;5019822;28;20203;-51
2022/03/24 03:17:07;;;;;;;9.70;8.73;;;;;;;0.12;100.00;98021.53;5027326;28;20320;-54
2022/03/24 03:19:35;;;;;;;9.67;8.67;;;;;;;0.11;100.00;98029.44;5019441;28;20223;-52
2022/03/24 03:22:04;;;;;;;8.57;7.70;;;;;;;0.04;100.00;98023.81;4981698;28;20361;-54
2022/03/24 03:24:32;;;;;;;9.87;8.87;;;;;;;-0.07;100.00;98023.63;4999827;28;20894;-52
2022/03/24 03:27:01;;;;;;;10.47;8.20;;;;;;;-0.18;100.00;98027.75;5021999;28;20364;-52
2022/03/24 03:29:30;;;;;;;9.40;8.40;;;;;;;-0.23;100.00;98023.75;5004743;28;20322;-51
2022/03/24 03:31:59;;;;;;;8.77;7.97;;;;;;;-0.31;100.00;98029.44;5018606;28;20277;-55
2022/03/24 03:34:27;;;;;;;9.50;8.50;;;;;;;-0.37;100.00;98029.81;5020284;28;20206;-53
2022/03/24 03:36:56;;;;;;;8.47;7.67;;;;;;;-0.40;100.00;98023.03;4978277;28;20509;-55
2022/03/24 03:39:25;;;;;;;9.13;8.27;;;;;;;-0.47;100.00;98024.34;5001253;28;20574;-56
2022/03/24 03:41:54;;;;;;;9.30;8.40;;;;;;;-0.48;100.00;98031.28;5018631;28;20443;-54
2022/03/24 03:44:23;;;;;;;8.17;7.47;;;;;;;-0.49;100.00;98032.22;5023430;28;20742;-53
2022/03/24 03:46:53;;;;;;;8.70;7.80;;;;;;;-0.40;100.00;98024.78;5017794;28;20234;-53
2022/03/24 03:49:21;;;;;;;9.43;8.43;;;;;;;-0.37;100.00;98025.44;5027250;28;20287;-53
2022/03/24 03:52:01;;;;;;;8.10;7.40;;;;;;;-0.48;100.00;98020.88;4979365;28;20470;-54
2022/03/24 03:54:29;;;;;;;8.90;8.03;;;;;;;-0.47;100.00;98021.72;5016094;28;20231;-53
2022/03/24 03:56:58;;;;;;;9.17;8.07;;;;;;;-0.46;100.00;98034.63;5003369;28;20784;-49
2022/03/24 03:59:26;;;;;;;9.70;8.70;;;;;;;-0.56;100.00;98025.72;5018965;28;20285;-52
2022/03/24 04:01:57;;;;;;;10.20;9.17;;;;;;;-0.47;100.00;98024.34;5018865;28;20452;-55
2022/03/24 04:04:26;;;;;;;8.40;7.60;;;;;;;-0.52;100.00;98024.59;5019961;28;20231;-51
2022/03/24 04:06:54;;;;;;;10.27;9.00;;;;;;;-0.61;100.00;98020.78;5017444;28;20261;-55
2022/03/24 04:09:22;;;;;;;9.63;8.27;;;;;;;-0.67;100.00;98022.94;4976774;28;20765;-53
2022/03/24 04:11:51;;;;;;;9.07;8.20;;;;;;;-0.79;100.00;98029.72;4987347;28;20257;-54
2022/03/24 04:14:19;;;;;;;8.43;7.73;;;;;;;-0.75;100.00;98029.44;5020179;28;20312;-54
2022/03/24 04:16:47;;;;;;;9.67;8.70;;;;;;;-0.70;100.00;98029.16;5016600;28;20208;-52
2022/03/24 04:19:16;;;;;;;9.77;8.77;;;;;;;-0.74;100.00;98031.13;5017162;28;20306;-51
2022/03/24 04:21:45;;;;;;;8.97;8.17;;;;;;;-0.74;100.00;98030.28;4992489;28;20240;-50
2022/03/24 04:24:13;;;;;;;9.43;8.23;;;;;;;-0.73;100.00;98024.13;4973185;28;20249;-53
2022/03/24 04:26:41;;;;;;;10.33;8.73;;;;;;;-0.94;100.00;98029.69;4995714;28;20329;-54
2022/03/24 04:29:10;;;;;;;10.03;9.10;;;;;;;-0.97;100.00;98024.66;4998968;28;20223;-50
2022/03/24 04:31:38;;;;;;;9.77;8.80;;;;;;;-0.95;100.00;98030.59;5018023;28;20269;-52
2022/03/24 04:34:06;;;;;;;9.97;9.07;;;;;;;-0.91;100.00;98032.13;5028567;28;20689;-56
2022/03/24 04:36:36;;;;;;;8.90;8.03;;;;;;;-1.16;100.00;98027.50;5003627;28;20211;-54
2022/03/24 04:39:04;;;;;;;8.63;7.83;;;;;;;-1.16;100.00;98035.31;5028265;28;20262;-50
2022/03/24 04:41:32;;;;;;;9.87;8.97;;;;;;;-1.31;100.00;98029.25;4976326;28;20300;-54
2022/03/24 04:44:01;;;;;;;8.73;7.93;;;;;;;-1.27;100.00;98030.75;5007210;28;20690;-53
2022/03/24 04:46:29;;;;;;;10.33;8.53;;;;;;;-1.36;100.00;98036.44;5029625;28;20215;-51
2022/03/24 04:48:58;;;;;;;9.97;7.93;;;;;;;-1.39;100.00;98037.47;5027314;28;20512;-53
2022/03/24 04:51:26;;;;;;;9.43;8.50;;;;;;;-1.37;100.00;98043.44;5026414;28;20227;-52
2022/03/24 04:53:55;;;;;;;9.37;7.97;;;;;;;-1.49;100.00;98039.75;5027400;28;20425;-52
2022/03/24 04:56:24;;;;;;;9.23;8.27;;;;;;;-1.51;100.00;98036.41;4974865;28;20755;-52
2022/03/24 04:58:52;;;;;;;9.97;8.43;;;;;;;-1.58;100.00;98044.63;5000153;28;20324;-52
2022/03/24 05:01:20;;;;;;;9.60;8.67;;;;;;;-1.69;100.00;98046.06;5005005;28;20221;-50
2022/03/24 05:03:48;;;;;;;11.37;8.97;;;;;;;-1.69;100.00;98034.84;5026246;28;20473;-53
2022/03/24 05:06:17;;;;;;;8.83;7.93;;;;;;;-1.68;100.00;98047.75;5027089;28;20294;-49
2022/03/24 05:08:45;;;;;;;8.87;7.80;;;;;;;-1.67;100.00;98053.81;5026328;28;20235;-53
2022/03/24 05:11:14;;;;;;;8.73;7.87;;;;;;;-1.58;100.00;98048.09;4996104;28;20275;-54
2022/03/24 05:13:43;;;;;;;9.47;8.30;;;;;;;-1.67;100.00;98048.59;5001283;28;20231;-52
2022/03/24 05:16:11;;;;;;;11.90;9.10;;;;;;;-1.68;100.00;98055.53;5029607;28;20678;-54
2022/03/24 05:18:39;;;;;;;8.77;7.97;;;;;;;-1.74;100.00;98045.50;5027625;28;21107;-48
2022/03/24 05:21:08;;;;;;;10.30;8.63;;;;;;;-1.78;100.00;98054.38;5027822;28;20661;-52
2022/03/24 05:23:37;;;;;;;8.63;7.87;;;;;;;-1.68;100.00;98055.53;5023648;28;20204;-54
2022/03/24 05:26:05;;;;;;;8.60;7.80;;;;;;;-1.67;100.00;98046.81;5029814;28;20815;-52
2022/03/24 05:28:35;;;;;;;8.47;7.57;;;;;;;-1.61;100.00;98058.66;4974771;28;20228;-55
2022/03/24 05:31:04;;;;;;;9.23;8.33;;;;;;;-1.54;100.00;98057.38;5001230;28;20208;-53
2022/03/24 05:33:33;;;;;;;9.70;8.70;;;;;;;-1.54;100.00;98059.97;5025735;28;20196;-57
2022/03/24 05:36:01;;;;;;;10.80;9.70;;;;;;;-1.52;100.00;98057.28;5024977;28;20307;-54
2022/03/24 05:38:29;;;;;;;9.10;8.20;;;;;;;-1.46;100.00;98056.97;5028640;28;20212;-54
2022/03/24 05:40:58;;;;;;;8.43;7.63;;;;;;;-1.30;100.00;98062.13;5029246;28;20293;-60
2022/03/24 05:43:26;;;;;;;10.03;9.03;;;;;;;-1.19;100.00;98075.34;4980712;28;20238;-56
2022/03/24 05:45:56;;;;;;;10.30;9.23;;;;;;;-1.24;100.00;98060.91;5009218;28;21011;-56
2022/03/24 05:48:24;;;;;;;16.40;12.73;;;;;;;-1.01;100.00;98062.19;5024795;28;20386;-56
2022/03/24 05:50:52;;;;;;;14.27;10.60;;;;;;;-0.97;100.00;98055.88;5025550;28;20219;-53
2022/03/24 05:53:21;;;;;;;9.67;8.57;;;;;;;-0.86;100.00;98070.03;5022598;28;20208;-51
2022/03/24 05:55:49;;;;;;;10.53;8.23;;;;;;;-0.69;100.00;98064.66;5026354;28;20261;-55
2022/03/24 05:58:17;;;;;;;10.23;8.23;;;;;;;-0.63;100.00;98053.88;5006198;28;20627;-54
2022/03/24 06:00:47;;;;;;;9.30;8.40;;;;;;;-0.35;100.00;98061.81;4990375;28;20381;-55
2022/03/24 06:03:17;;;;;;;10.67;9.70;;;;;;;0.06;100.00;98053.22;5027720;28;20207;-54
2022/03/24 06:05:46;;;;;;;13.77;12.20;;;;;;;1.23;100.00;98063.97;5024215;28;21080;-54
2022/03/24 06:08:14;;;;;;;9.77;8.80;;;;;;;2.49;100.00;98057.91;5020169;28;20234;-53
2022/03/24 06:10:42;;;;;;;9.83;8.83;;;;;;;1.82;100.00;98054.78;5021132;28;20227;-54
2022/03/24 06:13:11;;;;;;;11.00;9.57;;;;;;;1.56;100.00;98057.41;5024301;28;20556;-55
2022/03/24 06:15:40;;;;;;;10.63;8.43;;;;;;;1.23;100.00;98056.16;4965358;28;20488;-55
2022/03/24 06:18:08;;;;;;;10.60;9.17;;;;;;;1.27;100.00;98055.84;5022306;28;20235;-53
2022/03/24 06:20:38;;;;;;;10.80;8.70;;;;;;;1.11;100.00;98055.19;5021774;28;20295;-52
2022/03/24 06:23:06;;;;;;;9.07;8.17;;;;;;;1.33;100.00;98057.22;5025173;28;20277;-52
2022/03/24 06:25:34;;;;;;;9.00;8.10;;;;;;;1.24;100.00;98065.66;5021679;28;20501;-53
2022/03/24 06:28:02;;;;;;;10.87;9.13;;;;;;;1.34;100.00;98058.03;5023693;28;20330;-49
2022/03/24 06:30:31;;;;;;;10.27;9.33;;;;;;;1.40;100.00;98062.84;4980234;28;21830;-51
2022/03/24 06:32:59;;;;;;;11.50;9.27;;;;;;;1.42;100.00;98063.56;5008857;28;20393;-50
2022/03/24 06:35:28;;;;;;;10.93;9.73;;;;;;;1.57;100.00;98070.38;5002440;28;20273;-55
2022/03/24 06:37:57;;;;;;;10.57;9.50;;;;;;;1.61;100.00;98068.38;5025177;28;20208;-49
2022/03/24 06:40:26;;;;;;;9.73;8.83;;;;;;;1.67;100.00;98070.56;5005688;28;20256;-52
2022/03/24 06:42:54;;;;;;;10.53;9.37;;;;;;;1.73;100.00;98072.78;5024508;28;20583;-50
2022/03/24 06:45:22;;;;;;;11.57;8.90;;;;;;;1.89;100.00;98071.69;5021574;28;20254;-54
2022/03/24 06:47:51;;;;;;;11.13;10.03;;;;;;;1.90;100.00;98081.19;4980399;28;20600;-52
2022/03/24 06:50:19;;;;;;;10.63;9.67;;;;;;;1.91;100.00;98082.06;5022229;28;20246;-55
2022/03/24 06:52:47;;;;;;;10.13;9.23;;;;;;;1.94;100.00;98082.66;5027095;28;20203;-56
2022/03/24 06:55:17;;;;;;;10.80;9.70;;;;;;;2.06;100.00;98087.97;5006195;28;20215;-53
2022/03/24 06:57:45;;;;;;;10.50;9.47;;;;;;;2.12;100.00;98084.94;5020755;28;20278;-57
2022/03/24 07:00:15;;;;;;;12.70;8.93;;;;;;;2.37;100.00;98080.56;5021347;28;20224;-54
2022/03/24 07:02:44;;;;;;;9.97;8.97;;;;;;;2.51;100.00;98083.03;4984077;28;20219;-53
2022/03/24 07:05:13;;;;;;;10.80;9.67;;;;;;;2.47;100.00;98081.59;5007358;28;20440;-52
2022/03/24 07:07:41;;;;;;;11.80;9.90;;;;;;;2.65;100.00;98089.88;5022624;28;20761;-52
2022/03/24 07:10:10;;;;;;;11.00;9.90;;;;;;;2.86;100.00;98084.03;5009007;28;20232;-55
2022/03/24 07:12:40;;;;;;;11.97;8.83;;;;;;;3.13;100.00;98085.56;5023990;28;20214;-52
2022/03/24 07:15:11;;;;;;;10.47;9.37;;;;;;;3.44;100.00;98078.00;5026153;28;20251;-53
2022/03/24 07:17:40;;;;;;;10.93;9.83;;;;;;;3.47;100.00;98078.59;5023571;28;20536;-55
2022/03/24 07:20:09;;;;;;;9.93;9.00;;;;;;;3.94;100.00;98077.66;4966509;28;20717;-53
2022/03/24 07:22:38;;;;;;;10.10;9.00;;;;;;;4.00;100.00;98076.34;5018077;28;20449;-54
2022/03/24 07:25:08;;;;;;;9.00;8.13;;;;;;;4.17;100.00;98072.41;5026294;28;20627;-54
2022/03/24 07:27:37;;;;;;;11.73;10.53;;;;;;;4.58;100.00;98076.13;5009145;28;20735;-53
2022/03/24 07:30:09;;;;;;;11.50;10.43;;;;;;;5.36;100.00;98075.06;5026455;28;20231;-57
2022/03/24 07:32:37;;;;;;;11.03;10.03;;;;;;;7.45;100.00;98063.88;5018586;28;20227;-57
2022/03/24 07:35:07;;;;;;;11.53;10.00;;;;;;;8.86;90.30;98064.75;4985965;28;20299;-53
2022/03/24 07:37:36;;;;;;;10.70;9.70;;;;;;;9.87;72.22;98070.56;5005368;28;20219;-56
2022/03/24 07:40:07;;;;;;;11.17;10.03;;;;;;;10.65;61.35;98077.50;5021678;28;20750;-55
2022/03/24 07:42:36;;;;;;;10.13;9.17;;;;;;;11.46;56.51;98068.94;5010016;28;21101;-57
2022/03/24 07:45:05;;;;;;;10.20;9.20;;;;;;;11.66;53.46;98074.69;5021087;28;20235;-57
2022/03/24 07:47:36;;;;;;;9.80;8.43;;;;;;;12.02;50.59;98079.63;5022813;28;20318;-54
2022/03/24 07:50:04;;;;;;;9.10;8.27;;;;;;;12.35;49.77;98080.50;4981241;28;20321;-55
2022/03/24 07:52:33;;;;;;;9.60;8.77;;;;;;;11.94;50.08;98079.63;5003108;28;20208;-57
2022/03/24 07:55:07;;;;;;;9.37;8.57;;;;;;;10.55;53.57;98087.44;5024453;28;20631;-51
2022/03/24 07:57:35;;;;;;;9.43;8.63;;;;;;;9.58;61.29;98085.81;5005234;28;21102;-55
2022/03/24 08:00:04;;;;;;;8.83;8.13;;;;;;;8.99;70.80;98091.59;5022768;28;20256;-54
2022/03/24 08:02:32;;;;;;;8.80;8.00;;;;;;;8.77;72.55;98088.44;5019968;28;20317;-54
2022/03/24 08:05:01;;;;;;;9.00;7.60;;;;;;;8.53;77.86;98089.03;5023546;28;20729;-55
2022/03/24 08:07:29;;;;;;;9.23;8.33;;;;;;;8.52;80.00;98088.19;4958948;28;20301;-53
2022/03/24 08:09:58;;;;;;;9.47;8.57;;;;;;;8.53;79.28;98084.56;5028651;28;20250;-52
2022/03/24 08:12:26;;;;;;;8.63;7.73;;;;;;;8.32;82.29;98087.44;5026594;28;20235;-54
2022/03/24 08:14:54;;;;;;;8.40;7.60;;;;;;;8.64;79.07;98086.16;5016628;28;20222;-55
2022/03/24 08:17:28;;;;;;;12.07;8.27;;;;;;;8.81;76.86;98076.59;5024802;28;20884;-49
2022/03/24 08:19:56;;;;;;;8.20;7.50;;;;;;;8.91;75.88;98083.63;5025966;28;20231;-52
2022/03/24 08:22:26;;;;;;;9.90;8.87;;;;;;;8.97;73.89;98086.50;4970226;28;20497;-56
2022/03/24 08:24:54;;;;;;;7.70;6.93;;;;;;;9.17;72.43;98086.31;5028509;28;20871;-53
2022/03/24 08:27:22;;;;;;;9.47;8.63;;;;;;;9.24;71.03;98081.25;5021688;28;20259;-54
2022/03/24 08:29:50;;;;;;;8.77;7.97;;;;;;;9.32;66.74;98085.78;5012860;28;20247;-57
2022/03/24 08:32:18;;;;;;;9.97;7.83;;;;;;;9.42;68.95;98089.16;5023534;28;20207;-54
2022/03/24 08:34:47;;;;;;;10.27;8.10;;;;;;;9.88;65.68;98088.97;5019477;28;20215;-56
2022/03/24 08:37:15;;;;;;;10.07;8.30;;;;;;;9.88;63.96;98094.25;4994770;28;20276;-55
2022/03/24 08:39:45;;;;;;;8.70;7.80;;;;;;;10.19;61.70;98091.06;5008900;28;21637;-54
2022/03/24 08:42:13;;;;;;;9.63;8.50;;;;;;;10.41;59.41;98094.19;5024445;28;20760;-54
2022/03/24 08:44:41;;;;;;;9.23;8.23;;;;;;;10.52;58.51;98095.72;5025819;28;20231;-54
2022/03/24 08:47:10;;;;;;;9.93;8.93;;;;;;;10.62;56.18;98098.22;5014201;28;20395;-53
2022/03/24 08:49:38;;;;;;;9.67;8.73;;;;;;;10.80;53.91;98098.91;5023434;28;20281;-56
2022/03/24 08:52:07;;;;;;;9.17;8.13;;;;;;;10.80;54.09;98090.16;4985796;28;21048;-55
2022/03/24 08:54:35;;;;;;;10.57;9.53;;;;;;;11.11;52.67;98093.00;5011228;28;20428;-57
2022/03/24 08:57:05;;;;;;;11.53;10.20;;;;;;;10.90;52.88;98093.47;5027453;28;20227;-56
2022/03/24 08:59:33;;;;;;;10.87;9.77;;;;;;;11.29;50.78;98097.28;5024939;28;20264;-56
2022/03/24 09:02:04;;;;;;;9.80;8.80;;;;;;;11.35;50.98;98093.16;5003252;28;20580;-53
2022/03/24 09:04:32;;;;;;;10.23;9.17;;;;;;;11.57;50.50;98091.63;5021299;28;20208;-53
2022/03/24 09:07:21;;;;;;;10.20;9.13;;;;;;;11.72;48.82;98084.63;4985465;28;20227;-54
2022/03/24 09:09:49;;;;;;;12.23;9.20;;;;;;;11.85;48.72;98086.78;5004019;28;20223;-54
2022/03/24 09:12:19;;;;;;;10.93;9.43;;;;;;;11.87;49.08;98089.28;5021506;28;20235;-56
2022/03/24 09:14:47;;;;;;;10.67;9.57;;;;;;;12.23;48.94;98094.16;5027008;28;20243;-51
2022/03/24 09:17:16;;;;;;;9.77;8.93;;;;;;;11.96;48.26;98082.13;5012825;28;20336;-53
2022/03/24 09:19:44;;;;;;;11.63;9.20;;;;;;;12.05;49.38;98088.25;5025291;28;20223;-54
2022/03/24 09:22:12;;;;;;;10.50;9.50;;;;;;;12.23;48.73;98083.53;4987106;28;20212;-55
2022/03/24 09:24:41;;;;;;;12.67;10.10;;;;;;;12.23;48.30;98082.69;5022057;28;20205;-54
2022/03/24 09:27:09;;;;;;;10.97;9.63;;;;;;;12.36;49.38;98080.34;5006831;28;20835;-53
2022/03/24 09:29:39;;;;;;;11.70;10.10;;;;;;;12.51;47.52;98088.41;5027309;28;20316;-55
2022/03/24 09:32:12;;;;;;;10.63;9.53;;;;;;;12.61;48.08;98082.03;5021970;28;20353;-52
2022/03/24 09:34:40;;;;;;;12.30;10.07;;;;;;;12.77;47.08;98081.09;5008517;28;20266;-53
2022/03/24 09:37:17;;;;;;;13.07;10.67;;;;;;;12.64;46.16;98087.00;5027725;28;20260;-53
2022/03/24 09:39:46;;;;;;;12.07;10.13;;;;;;;12.94;45.26;98081.81;4981780;28;20231;-54
2022/03/24 09:42:14;;;;;;;14.33;12.27;;;;;;;13.05;44.18;98080.56;5015841;28;20790;-52
2022/03/24 09:44:43;;;;;;;13.17;11.93;;;;;;;12.85;42.79;98078.38;5028194;28;20605;-54
2022/03/24 09:47:12;;;;;;;12.77;11.47;;;;;;;13.00;42.94;98075.78;5027983;28;20498;-53
2022/03/24 09:49:42;;;;;;;12.70;11.50;;;;;;;13.15;42.51;98076.66;5007896;28;20780;-55
2022/03/24 09:52:11;;;;;;;12.00;10.77;;;;;;;13.39;42.62;98071.31;5026459;28;20250;-50
2022/03/24 09:54:41;;;;;;;13.87;12.43;;;;;;;13.30;41.60;98075.91;4990761;28;20258;-54
2022/03/24 09:57:10;;;;;;;13.37;11.87;;;;;;;13.36;41.29;98083.16;5004242;28;20465;-53
2022/03/24 09:59:39;;;;;;;14.27;12.17;;;;;;;13.48;41.64;98075.59;5025103;28;20303;-57
2022/03/24 10:02:09;;;;;;;17.23;12.93;;;;;;;13.66;40.93;98074.44;5018215;28;20497;-54
2022/03/24 10:04:45;;;;;;;16.17;12.37;;;;;;;13.73;40.96;98078.00;5011605;28;20295;-57
2022/03/24 10:07:16;;;;;;;14.53;13.10;;;;;;;13.65;41.17;98076.28;5026919;28;20400;-54
2022/03/24 10:09:45;;;;;;;15.27;13.67;;;;;;;13.70;40.51;98073.03;4983104;28;20260;-57
2022/03/24 10:12:21;;;;;;;18.63;13.03;;;;;;;13.82;40.60;98076.09;5009182;28;23055;-56
2022/03/24 10:15:00;;;;;;;13.30;12.00;;;;;;;13.79;40.32;98071.13;5024621;28;20675;-55
2022/03/24 10:17:30;;;;;;;17.90;13.43;;;;;;;14.01;40.92;98070.19;5023957;28;20231;-54
2022/03/24 10:20:00;;;;;;;13.60;12.20;;;;;;;14.10;40.21;98068.28;5006265;28;20611;-52
2022/03/24 10:22:28;;;;;;;14.13;12.63;;;;;;;14.05;39.68;98068.00;5027623;28;20557;-57
2022/03/24 10:24:57;;;;;;;16.40;13.50;;;;;;;14.16;39.79;98058.72;4982962;28;20212;-57
2022/03/24 10:27:28;;;;;;;14.60;13.10;;;;;;;14.26;39.28;98056.59;5008669;28;20239;-54
2022/03/24 10:30:00;;;;;;;18.63;13.83;;;;;;;14.31;38.48;98058.72;5023523;28;20215;-57
2022/03/24 10:32:31;;;;;;;16.07;14.33;;;;;;;14.39;38.72;98052.41;5024334;28;20203;-56
2022/03/24 10:35:09;;;;;;;15.03;13.03;;;;;;;14.62;39.10;98047.78;5009074;28;20215;-56
2022/03/24 10:37:37;;;;;;;14.80;13.07;;;;;;;14.78;38.69;98051.28;5026314;28;20622;-55
2022/03/24 10:40:08;;;;;;;15.40;12.33;;;;;;;15.08;38.27;98043.13;4986668;28;20879;-51
2022/03/24 10:42:37;;;;;;;15.87;12.37;;;;;;;15.09;37.84;98054.63;5008955;28;20310;-55
2022/03/24 10:45:12;;;;;;;18.83;13.37;;;;;;;15.21;36.81;98046.94;5022039;28;20203;-53
2022/03/24 10:47:44;;;;;;;15.73;13.53;;;;;;;15.09;37.24;98035.94;5024754;28;20314;-56
2022/03/24 10:50:27;;;;;;;16.23;13.97;;;;;;;15.13;37.36;98040.69;5007716;28;20341;-53
2022/03/24 10:52:59;;;;;;;13.90;12.50;;;;;;;15.46;37.70;98042.00;5021778;28;20212;-56
2022/03/24 10:55:33;;;;;;;12.73;11.10;;;;;;;15.50;36.83;98045.91;4983115;28;20329;-57
2022/03/24 10:58:01;;;;;;;12.43;11.17;;;;;;;15.48;35.49;98039.94;5005876;28;20927;-55
2022/03/24 11:00:29;;;;;;;14.40;11.97;;;;;;;15.74;35.66;98035.81;5024476;28;20235;-58
2022/03/24 11:03:00;;;;;;;12.93;11.73;;;;;;;15.66;33.68;98025.25;5023750;28;20249;-53
2022/03/24 11:05:28;;;;;;;14.77;10.80;;;;;;;15.77;34.21;98020.19;5006687;28;20220;-57
2022/03/24 11:07:57;;;;;;;12.23;11.13;;;;;;;15.97;32.60;98021.34;5022657;28;20284;-49
2022/03/24 11:10:25;;;;;;;12.10;10.23;;;;;;;15.92;32.20;98016.63;5023302;28;20243;-55
2022/03/24 11:12:56;;;;;;;10.83;9.83;;;;;;;16.13;31.47;98018.38;4964129;28;20341;-56
2022/03/24 11:15:24;;;;;;;12.60;10.53;;;;;;;15.96;29.98;98017.88;5025513;28;20207;-58
2022/03/24 11:17:52;;;;;;;9.50;8.60;;;;;;;16.28;30.29;98020.06;5016955;28;20794;-51
2022/03/24 11:20:33;;;;;;;10.70;9.60;;;;;;;16.24;29.89;98018.81;5005243;28;20719;-56
2022/03/24 11:23:11;;;;;;;10.77;9.67;;;;;;;16.39;29.30;98016.78;5020491;28;20270;-55
2022/03/24 11:25:39;;;;;;;13.97;10.67;;;;;;;16.08;29.15;98006.59;5015639;28;20238;-57
2022/03/24 11:28:11;;;;;;;10.50;9.60;;;;;;;16.35;29.19;98018.22;4969190;28;20227;-49
2022/03/24 11:30:39;;;;;;;10.87;9.77;;;;;;;16.32;29.06;98018.63;5020963;28;20232;-53
2022/03/24 11:33:08;;;;;;;9.67;8.77;;;;;;;16.64;29.27;98014.38;5022060;28;20552;-52
2022/03/24 11:35:38;;;;;;;13.30;9.60;;;;;;;16.79;27.29;98000.00;5022991;28;20207;-50